Time;durP1;ratioP1;P1;durP2;ratioP2;P2;SDS_P1;SDS_P2;PMS_P1;PMS_P2;Temp;Humidity;BMP_temperature;BMP_pressure;BME280_temperature;BME280_humidity;BME280_pressure;Samples;Min_cycle;Max_cycle;Signal;HPM_P1;HPM_P2
2022/05/14 00:01:26;;;;;;;1.92;1.60;;;22.10;99.90;;;;;;4995688;28;20030;-75
2022/05/14 00:03:53;;;;;;;2.25;2.05;;;22.10;99.90;;;;;;4994282;28;20027;-74
2022/05/14 00:06:22;;;;;;;2.00;1.70;;;22.10;99.90;;;;;;4994197;28;20039;-74
2022/05/14 00:08:51;;;;;;;1.90;1.60;;;22.20;99.90;;;;;;4996101;28;20022;-74
2022/05/14 00:14:05;;;;;;;3.20;1.83;;;22.20;99.90;;;;;;4995684;28;20118;-74
2022/05/14 00:16:34;;;;;;;2.13;1.80;;;22.10;99.90;;;;;;4995346;28;20372;-72
2022/05/14 00:19:03;;;;;;;1.70;1.50;;;22.00;99.90;;;;;;4995294;28;20054;-72
2022/05/14 00:21:32;;;;;;;2.08;1.80;;;22.00;99.90;;;;;;4995419;28;20031;-74
2022/05/14 00:23:59;;;;;;;1.80;1.67;;;21.90;99.90;;;;;;4995165;28;20032;-74
2022/05/14 00:26:27;;;;;;;1.92;1.83;;;21.80;99.90;;;;;;4993925;28;20033;-74
2022/05/14 00:28:55;;;;;;;1.60;1.45;;;21.90;99.90;;;;;;4993947;28;20023;-74
2022/05/14 00:31:22;;;;;;;2.25;1.60;;;22.00;99.90;;;;;;4995324;28;20386;-74
2022/05/14 00:33:49;;;;;;;1.73;1.60;;;22.20;99.90;;;;;;4995058;28;20105;-73
2022/05/14 00:36:18;;;;;;;1.88;1.48;;;22.30;99.90;;;;;;4994981;28;20034;-73
2022/05/14 00:38:46;;;;;;;2.63;1.80;;;22.50;99.90;;;;;;4995075;28;20395;-73
2022/05/14 00:41:13;;;;;;;2.38;2.03;;;22.50;99.90;;;;;;4994867;28;20026;-73
2022/05/14 00:43:57;;;;;;;2.22;1.55;;;22.50;99.90;;;;;;4994947;28;20029;-73
2022/05/14 00:46:29;;;;;;;2.20;2.00;;;22.40;99.90;;;;;;4994842;28;20023;-73
2022/05/14 00:48:59;;;;;;;1.70;1.55;;;22.50;99.90;;;;;;4993665;28;20022;-73
2022/05/14 00:51:28;;;;;;;2.47;1.70;;;22.30;99.90;;;;;;4993422;28;20483;-73
2022/05/14 00:54:01;;;;;;;1.98;1.77;;;22.40;99.90;;;;;;4993442;28;20026;-72
2022/05/14 00:56:35;;;;;;;2.47;2.03;;;22.40;99.90;;;;;;4994264;28;20037;-73
2022/05/14 00:59:13;;;;;;;2.72;1.75;;;22.50;99.90;;;;;;4994688;28;20034;-73
2022/05/14 01:01:42;;;;;;;1.75;1.40;;;22.70;99.90;;;;;;4994477;28;20026;-72
2022/05/14 01:04:10;;;;;;;1.83;1.73;;;22.80;99.90;;;;;;4994416;28;20027;-72
2022/05/14 01:06:40;;;;;;;1.77;1.67;;;22.70;99.90;;;;;;4994414;28;20135;-73
2022/05/14 01:09:07;;;;;;;;;;;22.80;99.90;;;;;;4994799;28;20518;-73
2022/05/14 01:11:40;;;;;;;2.08;1.63;;;23.00;99.90;;;;;;4994274;28;20352;-70
2022/05/14 01:14:08;;;;;;;1.67;1.58;;;23.20;99.90;;;;;;4994701;28;20033;-73
2022/05/14 01:16:36;;;;;;;2.47;1.75;;;23.30;99.90;;;;;;4994128;28;20479;-74
2022/05/14 01:19:05;;;;;;;2.28;1.40;;;23.30;99.90;;;;;;4994250;28;20023;-75
2022/05/14 01:22:13;;;;;;;1.67;1.57;;;23.30;99.90;;;;;;4994177;28;20044;-72
2022/05/14 01:28:03;;;;;;;1.55;1.40;;;23.70;99.90;;;;;;4953306;29;20102;-72
2022/05/14 01:30:31;;;;;;;2.50;1.48;;;23.70;99.90;;;;;;4986125;28;20435;-73
2022/05/14 01:33:05;;;;;;;1.42;1.33;;;23.70;99.90;;;;;;4994008;28;20050;-72
2022/05/14 01:35:38;;;;;;;1.52;1.23;;;23.90;99.90;;;;;;4994076;28;20422;-73
2022/05/14 01:38:06;;;;;;;2.22;1.85;;;23.80;99.90;;;;;;4993953;28;20030;-73
2022/05/14 01:40:33;;;;;;;1.63;1.50;;;23.80;99.90;;;;;;4994094;28;20037;-73
2022/05/14 01:43:01;;;;;;;1.58;1.48;;;24.00;99.90;;;;;;4993822;28;20030;-73
2022/05/14 01:45:28;;;;;;;1.60;1.27;;;24.20;99.90;;;;;;4992421;28;20026;-73
2022/05/14 01:47:56;;;;;;;1.50;1.40;;;24.40;99.90;;;;;;4993822;28;20023;-72
2022/05/14 01:50:23;;;;;;;1.65;1.40;;;24.50;99.90;;;;;;4993786;28;20041;-73
2022/05/14 01:52:50;;;;;;;1.85;1.70;;;24.60;99.90;;;;;;4993866;28;20411;-73
2022/05/14 01:55:18;;;;;;;1.60;1.50;;;24.70;99.90;;;;;;4993692;28;20030;-73
2022/05/14 01:57:45;;;;;;;2.67;1.67;;;24.70;99.90;;;;;;4993642;28;20022;-72
2022/05/14 02:00:16;;;;;;;1.70;1.60;;;24.80;99.90;;;;;;4992430;28;20428;-72
2022/05/14 02:02:43;;;;;;;1.60;1.40;;;24.80;99.90;;;;;;4993728;28;20026;-72
2022/05/14 02:05:11;;;;;;;1.85;1.23;;;24.90;99.90;;;;;;4993369;28;20412;-72
2022/05/14 02:07:38;;;;;;;1.90;1.70;;;25.00;99.90;;;;;;4993233;28;20042;-72
2022/05/14 02:10:06;;;;;;;2.47;1.52;;;25.10;99.90;;;;;;4993249;28;20101;-72
2022/05/14 02:12:33;;;;;;;1.98;1.55;;;25.20;99.90;;;;;;4993493;28;20081;-72
2022/05/14 02:15:01;;;;;;;2.50;1.40;;;25.30;99.90;;;;;;4992189;28;20066;-72
2022/05/14 02:17:28;;;;;;;1.48;1.35;;;25.30;99.90;;;;;;4993497;28;20495;-72
2022/05/14 02:19:56;;;;;;;3.22;1.40;;;25.40;99.90;;;;;;4993509;28;20022;-72
2022/05/14 02:22:24;;;;;;;7.50;2.33;;;25.40;99.90;;;;;;4993414;28;20497;-72
2022/05/14 02:24:51;;;;;;;7.43;2.70;;;25.40;99.90;;;;;;4993336;28;20424;-72
2022/05/14 02:27:18;;;;;;;7.97;3.20;;;25.30;99.90;;;;;;4992192;28;20044;-72
2022/05/14 02:29:53;;;;;;;8.45;2.83;;;25.00;99.90;;;;;;4993318;28;20014;-72
2022/05/14 02:32:24;;;;;;;9.93;3.53;;;25.00;99.90;;;;;;4993513;28;20072;-72
2022/05/14 02:34:52;;;;;;;6.55;2.97;;;25.10;99.90;;;;;;4993945;28;20423;-72
2022/05/14 02:37:22;;;;;;;7.88;2.92;;;25.00;99.90;;;;;;4993876;28;20439;-72
2022/05/14 02:39:51;;;;;;;9.25;3.58;;;25.00;99.90;;;;;;4993321;28;20442;-72
2022/05/14 02:42:18;;;;;;;12.48;3.40;;;24.90;99.90;;;;;;4993270;28;20026;-72
2022/05/14 02:44:46;;;;;;;8.00;3.42;;;24.90;99.90;;;;;;4993103;28;20456;-72
2022/05/14 02:47:13;;;;;;;6.80;3.08;;;25.00;99.90;;;;;;4993289;28;20503;-72
2022/05/14 02:49:40;;;;;;;7.18;3.00;;;24.80;99.90;;;;;;4993457;28;20017;-72
2022/05/14 02:52:09;;;;;;;7.40;3.38;;;24.60;99.90;;;;;;4993198;28;20033;-72
2022/05/14 02:54:37;;;;;;;6.85;2.72;;;24.50;99.90;;;;;;4992996;28;20026;-72
2022/05/14 02:57:06;;;;;;;6.43;3.53;;;24.50;99.90;;;;;;4993124;28;20030;-72
2022/05/14 02:59:33;;;;;;;6.78;2.88;;;24.50;99.90;;;;;;4993215;28;20549;-72
2022/05/14 03:02:01;;;;;;;5.05;2.92;;;24.50;99.90;;;;;;4993039;28;20105;-72
2022/05/14 03:04:37;;;;;;;5.28;3.08;;;24.50;99.90;;;;;;4991368;28;20026;-72
2022/05/14 03:07:10;;;;;;;5.90;2.92;;;24.50;99.90;;;;;;4991689;28;20109;-72
2022/05/14 03:09:39;;;;;;;5.75;3.70;;;24.50;99.90;;;;;;4992958;28;20019;-72
2022/05/14 03:12:10;;;;;;;6.95;3.38;;;24.70;99.90;;;;;;4993011;28;20026;-73
2022/05/14 03:14:37;;;;;;;;;;;24.80;99.90;;;;;;4993864;28;20085;-72
2022/05/14 03:17:05;;;;;;;7.20;4.28;;;24.70;99.90;;;;;;4993000;28;19913;-72
2022/05/14 03:19:33;;;;;;;8.25;4.18;;;24.60;99.90;;;;;;4993706;28;20038;-72
2022/05/14 03:22:00;;;;;;;8.68;4.45;;;24.70;99.90;;;;;;4996396;28;20026;-72
2022/05/14 03:24:27;;;;;;;9.70;4.63;;;24.80;99.90;;;;;;4994977;28;20386;-72
2022/05/14 03:26:55;;;;;;;8.20;5.28;;;24.70;99.90;;;;;;4996503;28;20018;-72
2022/05/14 03:29:22;;;;;;;10.38;5.45;;;24.80;99.90;;;;;;4996278;28;20034;-72
2022/05/14 03:31:49;;;;;;;8.18;5.45;;;24.90;99.90;;;;;;4996142;28;20015;-72
2022/05/14 03:34:17;;;;;;;11.00;6.00;;;25.00;99.90;;;;;;4994932;28;20034;-72
2022/05/14 03:36:45;;;;;;;12.38;7.00;;;24.80;99.90;;;;;;4996092;28;20054;-72
2022/05/14 03:39:12;;;;;;;12.15;7.03;;;24.70;99.90;;;;;;4996123;28;20030;-72
2022/05/14 03:41:40;;;;;;;10.80;7.15;;;24.60;99.90;;;;;;4995926;28;20041;-72
2022/05/14 03:44:08;;;;;;;14.50;7.53;;;24.60;99.90;;;;;;4995896;28;20023;-72
2022/05/14 03:46:36;;;;;;;11.43;8.25;;;24.40;99.90;;;;;;4995879;28;20503;-72
2022/05/14 03:49:03;;;;;;;10.98;7.75;;;24.20;99.90;;;;;;4996034;28;20109;-73
2022/05/14 03:51:31;;;;;;;14.48;7.68;;;24.00;99.90;;;;;;4995837;28;20022;-73
2022/05/14 03:54:00;;;;;;;14.38;7.85;;;24.20;99.90;;;;;;4995836;28;20105;-73
2022/05/14 03:56:27;;;;;;;12.43;7.90;;;24.40;99.90;;;;;;4996035;28;20080;-72
2022/05/14 03:58:55;;;;;;;10.98;7.22;;;24.40;99.90;;;;;;4995940;28;20102;-73
2022/05/14 04:01:22;;;;;;;11.25;7.10;;;24.40;99.90;;;;;;4995647;28;20018;-73
2022/05/14 04:03:50;;;;;;;11.65;6.82;;;24.40;99.90;;;;;;4995881;28;20108;-73
2022/05/14 04:06:18;;;;;;;10.93;6.72;;;24.40;99.90;;;;;;4995226;28;20078;-72
2022/05/14 04:08:45;;;;;;;10.50;6.10;;;24.40;99.90;;;;;;4995577;28;20045;-72
2022/05/14 04:11:13;;;;;;;10.43;6.75;;;24.60;99.90;;;;;;4994165;28;20364;-72
2022/05/14 04:13:41;;;;;;;9.02;6.57;;;24.70;99.90;;;;;;4995790;28;20368;-73
2022/05/14 04:16:08;;;;;;;9.23;5.78;;;24.80;99.90;;;;;;4994230;28;20113;-73
2022/05/14 04:18:36;;;;;;;7.95;5.35;;;24.80;99.90;;;;;;4994033;28;20049;-73
2022/05/14 04:21:03;;;;;;;7.97;5.22;;;24.80;99.90;;;;;;4995259;28;20034;-73
2022/05/14 04:23:32;;;;;;;9.02;5.15;;;24.70;99.90;;;;;;4995173;28;20076;-73
2022/05/14 04:26:00;;;;;;;8.02;4.90;;;24.80;99.90;;;;;;4993908;28;20058;-73
2022/05/14 04:28:28;;;;;;;7.95;4.45;;;24.70;99.90;;;;;;4993862;28;20037;-73
2022/05/14 04:30:56;;;;;;;8.05;5.00;;;24.70;99.90;;;;;;4993457;28;20073;-72
2022/05/14 04:33:26;;;;;;;9.73;4.63;;;24.70;99.90;;;;;;4995343;28;20037;-72
2022/05/14 04:35:53;;;;;;;7.10;3.83;;;24.70;99.90;;;;;;4995057;28;20037;-72
2022/05/14 04:38:20;;;;;;;4.85;3.70;;;24.60;99.90;;;;;;4993621;28;20030;-71
2022/05/14 04:40:48;;;;;;;5.72;3.50;;;24.50;99.90;;;;;;4994855;28;20033;-72
2022/05/14 04:43:15;;;;;;;7.72;3.63;;;24.50;99.90;;;;;;4994992;28;20496;-73
2022/05/14 04:45:44;;;;;;;8.27;3.63;;;24.40;99.90;;;;;;4994829;28;20022;-73
2022/05/14 04:48:12;;;;;;;6.80;3.55;;;24.30;99.90;;;;;;4994782;28;20029;-73
2022/05/14 04:50:40;;;;;;;7.63;3.83;;;24.20;99.90;;;;;;4994792;28;20072;-72
2022/05/14 04:53:08;;;;;;;7.40;3.67;;;24.20;99.90;;;;;;4994661;28;20031;-72
2022/05/14 04:55:36;;;;;;;10.50;3.45;;;24.10;99.90;;;;;;4994685;28;20033;-72
2022/05/14 04:58:07;;;;;;;6.65;3.20;;;24.10;99.90;;;;;;4994456;28;20391;-72
2022/05/14 05:00:38;;;;;;;9.10;3.45;;;24.10;99.90;;;;;;4994756;28;20382;-72
2022/05/14 05:03:19;;;;;;;7.78;3.15;;;24.00;99.90;;;;;;4994449;28;20054;-73
2022/05/14 05:05:53;;;;;;;;;;;23.90;99.90;;;;;;4993429;28;20411;-72
2022/05/14 05:08:21;;;;;;;5.90;3.40;;;23.90;99.90;;;;;;4994478;28;19949;-71
2022/05/14 05:10:49;;;;;;;6.53;3.28;;;23.80;99.90;;;;;;4993166;28;20054;-74
2022/05/14 05:13:20;;;;;;;6.93;2.75;;;23.80;99.90;;;;;;4994290;28;20080;-73
2022/05/14 05:15:48;;;;;;;5.15;2.58;;;23.70;99.90;;;;;;4994376;28;20426;-72
2022/05/14 05:18:16;;;;;;;8.05;3.33;;;23.70;99.90;;;;;;4994173;28;20031;-72
2022/05/14 05:20:45;;;;;;;6.10;2.90;;;23.70;99.90;;;;;;4994219;28;20030;-72
2022/05/14 05:23:15;;;;;;;8.15;3.45;;;23.60;99.90;;;;;;4994459;28;20026;-72
2022/05/14 05:25:43;;;;;;;6.00;2.80;;;23.50;99.90;;;;;;4994422;28;20369;-72
2022/05/14 05:28:10;;;;;;;7.85;2.83;;;23.50;99.90;;;;;;4993923;28;20022;-73
2022/05/14 05:30:38;;;;;;;6.63;2.72;;;23.40;99.90;;;;;;4994040;28;20479;-72
2022/05/14 05:33:10;;;;;;;7.32;3.08;;;23.40;99.90;;;;;;4993859;28;20480;-72
2022/05/14 05:35:37;;;;;;;9.13;3.03;;;23.40;99.90;;;;;;4994011;28;20038;-73
2022/05/14 05:38:04;;;;;;;5.15;2.70;;;23.40;99.90;;;;;;4992655;28;20399;-73
2022/05/14 05:40:33;;;;;;;6.72;2.70;;;23.40;99.90;;;;;;4993825;28;20085;-74
2022/05/14 05:43:00;;;;;;;4.78;2.97;;;23.30;99.90;;;;;;4992832;28;20058;-73
2022/05/14 05:45:30;;;;;;;7.93;3.13;;;23.10;99.90;;;;;;4993632;28;20018;-74
2022/05/14 05:47:58;;;;;;;4.93;2.85;;;23.00;99.90;;;;;;4993518;28;20029;-74
2022/05/14 05:50:27;;;;;;;9.65;3.63;;;23.00;99.90;;;;;;4993692;28;20026;-74
2022/05/14 05:52:54;;;;;;;6.25;3.40;;;23.00;99.90;;;;;;4992356;28;20053;-74
2022/05/14 05:58:08;;;;;;;6.68;3.00;;;22.80;99.90;;;;;;4993851;28;20069;-74
2022/05/14 06:00:36;;;;;;;5.95;3.53;;;22.80;99.90;;;;;;4993520;28;20073;-74
2022/05/14 06:03:04;;;;;;;5.20;3.17;;;22.80;99.90;;;;;;4993388;28;20022;-75
2022/05/14 06:05:31;;;;;;;5.40;3.13;;;22.70;99.90;;;;;;4993168;28;20084;-74
2022/05/14 06:07:58;;;;;;;7.05;3.38;;;22.60;99.90;;;;;;4992223;28;20030;-74
2022/05/14 06:10:26;;;;;;;6.07;3.40;;;22.50;99.90;;;;;;4993510;28;20098;-74
2022/05/14 06:12:53;;;;;;;7.65;3.92;;;22.50;99.90;;;;;;4993516;28;20218;-74
2022/05/14 06:15:21;;;;;;;6.13;3.35;;;22.40;99.90;;;;;;4993197;28;20387;-74
2022/05/14 06:17:48;;;;;;;7.68;3.50;;;22.40;99.90;;;;;;4993314;28;20547;-74
2022/05/14 06:20:17;;;;;;;5.13;3.38;;;22.30;99.90;;;;;;4992068;28;20112;-74
2022/05/14 06:22:45;;;;;;;6.05;3.60;;;22.20;99.90;;;;;;4993341;28;20041;-74
2022/05/14 06:25:13;;;;;;;4.25;2.97;;;22.20;99.90;;;;;;4993392;28;20022;-74
2022/05/14 06:27:40;;;;;;;7.30;3.42;;;22.20;99.90;;;;;;4993225;28;20014;-74
2022/05/14 06:30:08;;;;;;;6.70;3.28;;;22.10;99.90;;;;;;4993845;28;20438;-74
2022/05/14 06:32:36;;;;;;;7.80;3.70;;;22.00;99.90;;;;;;4993164;28;20053;-74
2022/05/14 06:35:06;;;;;;;6.07;3.40;;;21.90;99.90;;;;;;4993146;28;20045;-74
2022/05/14 06:37:33;;;;;;;10.88;3.78;;;21.90;99.90;;;;;;4993205;28;20494;-74
2022/05/14 06:40:01;;;;;;;6.78;3.85;;;21.90;99.90;;;;;;4991801;28;20085;-74
2022/05/14 06:42:28;;;;;;;9.27;4.10;;;21.80;99.90;;;;;;4992960;28;20014;-74
2022/05/14 06:44:57;;;;;;;6.72;3.80;;;21.70;99.90;;;;;;4991674;28;20026;-73
2022/05/14 06:47:24;;;;;;;6.70;3.88;;;21.70;99.90;;;;;;4992885;28;20022;-74
2022/05/14 06:49:51;;;;;;;6.47;3.72;;;21.70;99.90;;;;;;4992944;28;20026;-74
2022/05/14 06:52:20;;;;;;;7.55;3.78;;;21.60;99.90;;;;;;4991621;28;20498;-74
2022/05/14 06:54:50;;;;;;;6.05;3.38;;;21.60;99.90;;;;;;4994295;28;20422;-74
2022/05/14 06:57:18;;;;;;;6.63;3.70;;;21.60;99.90;;;;;;4996760;28;20031;-74
2022/05/14 06:59:45;;;;;;;6.97;3.65;;;21.50;99.90;;;;;;4996714;28;20034;-74
2022/05/14 07:02:14;;;;;;;8.35;4.35;;;21.30;99.90;;;;;;4996463;28;20109;-75
2022/05/14 07:07:27;;;;;;;6.82;3.53;;;21.20;99.90;;;;;;4997008;28;20053;-75
2022/05/14 07:09:55;;;;;;;8.40;3.95;;;21.10;99.90;;;;;;4996684;28;20030;-75
2022/05/14 07:12:23;;;;;;;9.13;3.92;;;21.10;99.90;;;;;;4996638;28;20101;-74
2022/05/14 07:14:50;;;;;;;9.57;4.13;;;21.00;99.90;;;;;;4995238;28;20080;-74
2022/05/14 07:17:17;;;;;;;8.60;3.67;;;21.00;99.90;;;;;;4996418;28;20073;-75
2022/05/14 07:19:45;;;;;;;8.55;3.47;;;20.90;99.90;;;;;;4996524;28;20022;-74
2022/05/14 07:22:16;;;;;;;7.80;2.90;;;20.90;99.90;;;;;;4996720;28;20025;-74
2022/05/14 07:24:45;;;;;;;7.22;3.25;;;20.80;99.90;;;;;;4996396;28;20490;-75
2022/05/14 07:27:13;;;;;;;8.10;3.22;;;20.80;99.90;;;;;;4996482;28;20026;-74
2022/05/14 07:29:43;;;;;;;14.10;4.25;;;20.80;99.90;;;;;;4996320;28;20029;-75
2022/05/14 07:32:12;;;;;;;10.63;3.30;;;20.70;99.90;;;;;;4996330;28;20042;-73
2022/05/14 07:34:41;;;;;;;7.63;3.50;;;20.70;99.90;;;;;;4996260;28;20391;-72
2022/05/14 07:37:23;;;;;;;9.90;4.05;;;20.60;99.90;;;;;;4995103;28;20546;-77
2022/05/14 07:39:57;;;;;;;9.68;3.25;;;20.60;99.90;;;;;;4995015;28;20479;-78
2022/05/14 07:42:37;;;;;;;10.75;4.07;;;20.50;99.90;;;;;;4996143;28;20018;-78
2022/05/14 07:45:07;;;;;;;8.50;3.93;;;20.50;99.90;;;;;;4996346;28;20487;-79
2022/05/14 07:47:35;;;;;;;8.77;3.95;;;20.50;99.90;;;;;;4996192;28;20162;-79
2022/05/14 07:50:04;;;;;;;11.18;4.10;;;20.50;99.90;;;;;;4996144;28;20085;-78
2022/05/14 07:52:31;;;;;;;11.32;5.57;;;20.50;99.90;;;;;;4996205;28;20051;-76
2022/05/14 07:54:59;;;;;;;12.15;5.70;;;20.40;99.90;;;;;;4995133;28;20031;-79
2022/05/14 07:57:26;;;;;;;6.88;4.82;;;20.40;99.90;;;;;;4996187;28;20026;-79
2022/05/14 07:59:53;;;;;;;11.02;5.47;;;20.40;99.90;;;;;;4994842;28;20033;-77
2022/05/14 08:02:34;;;;;;;10.95;5.40;;;20.40;99.90;;;;;;4996303;28;20041;-78
2022/05/14 08:05:04;;;;;;;13.23;6.75;;;20.40;99.90;;;;;;4996180;28;20042;-76
2022/05/14 08:07:32;;;;;;;13.52;6.72;;;20.40;99.90;;;;;;4995913;28;20387;-78
2022/05/14 08:10:00;;;;;;;12.40;5.28;;;20.40;99.90;;;;;;4994705;28;20035;-78
2022/05/14 08:12:40;;;;;;;13.57;5.25;;;20.30;99.90;;;;;;4996086;28;20030;-80
2022/05/14 08:15:10;;;;;;;9.55;4.55;;;20.30;99.90;;;;;;4995936;28;20025;-79
2022/05/14 08:17:37;;;;;;;12.43;4.57;;;20.20;99.90;;;;;;4995656;28;20026;-78
2022/05/14 08:20:06;;;;;;;10.43;4.57;;;20.20;99.90;;;;;;4995459;28;20023;-78
2022/05/14 08:25:19;;;;;;;8.60;3.53;;;20.20;99.90;;;;;;4995862;28;20089;-78
2022/05/14 08:27:47;;;;;;;12.00;5.10;;;20.20;99.90;;;;;;4995674;28;20027;-78
2022/05/14 08:30:35;;;;;;;11.00;4.00;;;20.20;99.90;;;;;;4994385;28;20027;-78
2022/05/14 08:33:04;;;;;;;10.95;3.88;;;20.20;99.90;;;;;;4995461;28;20073;-78
2022/05/14 08:35:32;;;;;;;11.23;4.20;;;20.10;99.90;;;;;;4994151;28;20142;-79
2022/05/14 08:38:00;;;;;;;9.68;4.00;;;20.20;99.90;;;;;;4995773;28;20030;-79
2022/05/14 08:40:30;;;;;;;16.45;4.13;;;20.10;99.90;;;;;;4995309;28;20128;-79
2022/05/14 08:43:03;;;;;;;10.40;4.43;;;20.10;99.90;;;;;;4995740;28;20375;-77
2022/05/14 08:45:36;;;;;;;12.80;4.78;;;20.10;99.90;;;;;;4993714;28;20022;-78
2022/05/14 08:48:26;;;;;;;7.85;4.07;;;20.10;99.90;;;;;;4995177;28;20019;-78
2022/05/14 08:51:04;;;;;;;;;;;20.10;99.90;;;;;;4994638;28;20022;-79
2022/05/14 08:53:33;;;;;;;9.13;4.85;;;20.10;99.90;;;;;;4995461;28;20450;-79
2022/05/14 08:56:21;;;;;;;11.48;5.53;;;20.10;99.90;;;;;;4994683;28;20029;-78
2022/05/14 08:59:23;;;;;;;10.20;6.00;;;20.10;99.90;;;;;;4995964;28;20030;-79
2022/05/14 09:01:52;;;;;;;13.10;6.75;;;20.00;99.90;;;;;;4995515;28;20097;-78
2022/05/14 09:04:20;;;;;;;14.43;7.78;;;20.00;99.90;;;;;;4994909;28;20026;-79
2022/05/14 09:06:50;;;;;;;10.30;5.75;;;20.00;99.90;;;;;;4995752;28;20415;-79
2022/05/14 09:09:19;;;;;;;13.65;6.43;;;20.00;99.90;;;;;;4993933;28;20022;-78
2022/05/14 09:11:58;;;;;;;10.85;5.90;;;20.00;99.90;;;;;;4993492;28;20030;-79
2022/05/14 09:14:32;;;;;;;8.95;5.50;;;20.00;99.90;;;;;;4995283;28;20042;-80
2022/05/14 09:17:20;;;;;;;14.25;5.50;;;20.00;99.90;;;;;;4995224;28;20022;-79
2022/05/14 09:19:53;;;;;;;11.48;5.22;;;20.00;99.90;;;;;;4995567;28;20419;-80
2022/05/14 09:22:24;;;;;;;13.95;5.90;;;20.10;99.90;;;;;;4994133;28;20030;-79
2022/05/14 09:24:59;;;;;;;12.45;4.60;;;20.00;99.90;;;;;;4994418;28;20033;-80
2022/05/14 09:27:30;;;;;;;12.80;5.65;;;20.00;99.90;;;;;;4999058;28;20030;-81
2022/05/14 09:30:04;;;;;;;8.48;4.47;;;20.00;99.90;;;;;;4993131;28;20026;-80
2022/05/14 09:32:44;;;;;;;11.25;4.88;;;20.00;99.90;;;;;;4993034;28;20481;-79
2022/05/14 09:35:24;;;;;;;9.13;4.32;;;20.00;99.90;;;;;;4994362;28;20030;-78
2022/05/14 09:37:57;;;;;;;7.23;5.10;;;20.00;99.90;;;;;;4992978;28;20034;-79
2022/05/14 09:40:29;;;;;;;12.88;6.03;;;20.00;99.90;;;;;;4992708;28;20076;-79
2022/05/14 09:43:10;;;;;;;11.82;6.03;;;20.00;99.90;;;;;;4992731;28;20029;-79
2022/05/14 09:45:41;;;;;;;10.90;5.00;;;19.90;99.90;;;;;;4994135;28;20483;-79
2022/05/14 09:48:12;;;;;;;;;;;19.80;99.90;;;;;;4994579;28;20018;-79
2022/05/14 09:50:41;;;;;;;9.48;4.90;;;19.80;99.90;;;;;;4993974;28;19905;-80
2022/05/14 09:53:09;;;;;;;9.30;4.50;;;19.80;99.90;;;;;;4994180;28;20482;-81
2022/05/14 09:56:11;;;;;;;11.25;4.55;;;19.80;99.90;;;;;;4994263;28;20018;-81
2022/05/14 09:59:11;;;;;;;7.93;4.30;;;19.80;99.90;;;;;;4982236;28;20042;-80
2022/05/14 10:01:51;;;;;;;8.80;4.22;;;19.80;99.90;;;;;;4994390;28;20054;-80
2022/05/14 10:05:00;;;;;;;9.27;5.05;;;19.80;99.90;;;;;;4992451;28;20145;-80
2022/05/14 10:07:42;;;;;;;9.73;4.20;;;19.80;99.90;;;;;;4972431;28;20062;-80
2022/05/14 10:10:14;;;;;;;6.32;4.05;;;19.80;99.90;;;;;;4972332;28;20115;-77
2022/05/14 10:13:13;;;;;;;7.07;3.95;;;19.80;99.90;;;;;;4985512;28;20443;-79
2022/05/14 10:15:59;;;;;;;8.52;5.00;;;19.70;99.90;;;;;;4984884;28;20040;-79
2022/05/14 10:18:39;;;;;;;8.18;3.95;;;19.70;99.90;;;;;;4994315;28;20058;-80
2022/05/14 10:21:23;;;;;;;9.60;4.90;;;19.70;99.90;;;;;;4994090;28;20092;-78
2022/05/14 10:27:18;;;;;;;7.65;4.25;;;19.70;99.90;;;;;;4994053;28;20037;-79
2022/05/14 10:30:22;;;;;;;10.02;4.50;;;19.70;99.90;;;;;;4993592;28;20018;-78
2022/05/14 10:33:01;;;;;;;9.23;4.45;;;19.70;99.90;;;;;;4997803;28;20104;-79
2022/05/14 10:35:40;;;;;;;5.95;4.07;;;19.70;99.90;;;;;;4996247;28;20022;-79
2022/05/14 10:38:34;;;;;;;9.10;4.28;;;19.60;99.90;;;;;;4997557;28;20101;-78
2022/05/14 10:41:08;;;;;;;7.28;4.00;;;19.70;99.90;;;;;;4990417;28;20040;-79
2022/05/14 10:44:02;;;;;;;8.43;4.22;;;19.60;99.90;;;;;;4997765;28;20022;-78
2022/05/14 10:46:32;;;;;;;8.88;4.60;;;19.60;99.90;;;;;;4997814;28;20026;-80
2022/05/14 10:49:19;;;;;;;;;;;19.60;99.90;;;;;;4996908;28;20037;-80
2022/05/14 10:51:53;;;;;;;9.07;4.65;;;19.60;99.90;;;;;;4990325;28;19909;-79
2022/05/14 10:54:23;;;;;;;8.40;4.82;;;19.60;99.90;;;;;;4996321;28;20026;-78
2022/05/14 10:57:03;;;;;;;8.20;4.47;;;19.50;99.90;;;;;;4997517;28;20030;-79
2022/05/14 10:59:36;;;;;;;9.13;4.68;;;19.60;99.90;;;;;;4997485;28;20026;-80
2022/05/14 11:02:09;;;;;;;9.30;4.75;;;19.50;99.90;;;;;;4997748;28;20037;-80
2022/05/14 11:04:44;;;;;;;8.60;4.75;;;19.50;99.90;;;;;;4997364;28;20381;-80
2022/05/14 11:07:25;;;;;;;9.32;5.28;;;19.50;99.90;;;;;;4996257;28;20100;-80
2022/05/14 11:09:52;;;;;;;13.10;7.97;;;19.50;99.90;;;;;;4997995;28;20022;-81
2022/05/14 11:12:20;;;;;;;9.90;5.45;;;19.50;99.90;;;;;;4997914;28;20023;-80
2022/05/14 11:14:59;;;;;;;8.15;5.72;;;19.50;99.90;;;;;;4997676;28;20050;-80
2022/05/14 11:17:35;;;;;;;10.95;5.80;;;19.50;99.90;;;;;;4997899;28;20026;-80
2022/05/14 11:20:16;;;;;;;9.07;5.32;;;19.50;99.90;;;;;;4997446;28;20053;-78
2022/05/14 11:22:49;;;;;;;8.75;6.00;;;19.40;99.90;;;;;;4997349;28;20033;-78
2022/05/14 11:25:22;;;;;;;10.13;6.15;;;19.40;99.90;;;;;;4997177;28;20480;-79
2022/05/14 11:27:58;;;;;;;13.15;6.45;;;19.40;99.90;;;;;;4996701;28;20026;-79
2022/05/14 11:30:43;;;;;;;11.93;5.88;;;19.30;99.90;;;;;;4995557;28;20113;-79
2022/05/14 11:33:26;;;;;;;7.88;5.45;;;19.30;99.90;;;;;;4996802;28;20101;-79
2022/05/14 11:36:03;;;;;;;8.82;5.63;;;19.30;99.90;;;;;;4995537;28;20403;-78
2022/05/14 11:38:34;;;;;;;10.75;5.32;;;19.30;99.90;;;;;;4995352;28;20077;-78
2022/05/14 11:41:15;;;;;;;9.73;5.43;;;19.30;99.90;;;;;;4996674;28;20526;-80
2022/05/14 11:43:46;;;;;;;9.60;5.35;;;19.30;99.90;;;;;;4996502;28;20022;-78
2022/05/14 11:46:33;;;;;;;10.52;5.68;;;19.40;99.90;;;;;;4995068;28;20022;-77
2022/05/14 11:49:16;;;;;;;11.25;5.82;;;19.30;99.90;;;;;;4996328;28;20434;-77
2022/05/14 11:51:51;;;;;;;5.88;5.07;;;19.30;99.90;;;;;;4996674;28;20475;-78
2022/05/14 11:54:23;;;;;;;10.60;5.40;;;19.20;99.90;;;;;;4996346;28;20099;-77
2022/05/14 11:56:50;;;;;;;8.73;6.05;;;19.20;99.90;;;;;;4996521;28;20050;-77
2022/05/14 11:59:37;;;;;;;9.35;7.18;;;19.10;99.90;;;;;;4996309;28;20026;-79
2022/05/14 12:02:13;;;;;;;11.52;7.95;;;19.10;99.90;;;;;;4994786;28;20058;-79
2022/05/14 12:04:45;;;;;;;9.40;7.60;;;19.00;99.90;;;;;;4995788;28;20046;-79
2022/05/14 12:07:19;;;;;;;8.63;7.03;;;19.00;99.90;;;;;;4996540;28;20044;-80
2022/05/14 12:09:58;;;;;;;9.50;7.53;;;18.90;99.90;;;;;;4996023;28;20026;-79
2022/05/14 12:12:41;;;;;;;10.65;8.00;;;18.90;99.90;;;;;;4996494;28;20368;-79
2022/05/14 12:15:21;;;;;;;11.20;8.43;;;19.00;99.90;;;;;;4994765;28;20022;-79
2022/05/14 12:17:52;;;;;;;11.18;8.05;;;19.00;99.90;;;;;;4997933;28;20030;-79
2022/05/14 12:20:26;;;;;;;11.15;9.30;;;18.90;99.90;;;;;;4997311;28;20026;-79
2022/05/14 12:23:01;;;;;;;10.05;8.70;;;18.90;99.90;;;;;;4997706;28;20030;-79
2022/05/14 12:25:42;;;;;;;11.95;8.68;;;18.90;99.90;;;;;;4995741;28;20026;-79
2022/05/14 12:28:27;;;;;;;11.40;8.02;;;18.80;99.90;;;;;;4997567;28;20026;-80
2022/05/14 12:33:54;;;;;;;12.05;8.27;;;18.80;99.90;;;;;;4997113;28;20037;-79
2022/05/14 12:36:22;;;;;;;8.55;7.63;;;18.70;99.90;;;;;;4994821;28;20080;-80
2022/05/14 12:38:50;;;;;;;12.63;7.85;;;18.70;99.90;;;;;;4995979;28;20054;-80
2022/05/14 12:41:39;;;;;;;9.45;8.00;;;18.80;99.90;;;;;;4996309;28;20113;-79
2022/05/14 12:44:12;;;;;;;12.48;8.02;;;18.80;99.90;;;;;;4996156;28;20081;-80
2022/05/14 12:46:48;;;;;;;13.93;8.15;;;18.80;99.90;;;;;;4996537;28;20021;-79
2022/05/14 12:49:28;;;;;;;12.85;8.43;;;18.80;99.90;;;;;;4994780;28;20113;-79
2022/05/14 12:51:58;;;;;;;11.65;8.13;;;18.80;99.90;;;;;;4995659;28;20440;-79
2022/05/14 12:54:33;;;;;;;12.35;8.35;;;18.80;99.90;;;;;;4994614;28;20062;-79
2022/05/14 12:57:08;;;;;;;12.52;8.50;;;18.80;99.90;;;;;;4995090;28;20159;-80
2022/05/14 12:59:36;;;;;;;9.73;8.48;;;18.70;99.90;;;;;;4997212;28;20033;-81
2022/05/14 13:02:14;;;;;;;12.30;8.00;;;18.70;99.90;;;;;;4996946;28;20369;-80
2022/05/14 13:05:11;;;;;;;10.63;8.40;;;18.70;99.90;;;;;;4994176;28;20045;-78
2022/05/14 13:07:52;;;;;;;9.57;8.15;;;18.70;99.90;;;;;;4995685;28;20022;-79
2022/05/14 13:10:22;;;;;;;;;;;18.60;99.90;;;;;;4996127;28;20029;-78
2022/05/14 13:13:07;;;;;;;14.00;9.53;;;18.60;99.90;;;;;;4995280;28;19905;-78
2022/05/14 13:16:01;;;;;;;14.38;8.65;;;18.60;99.90;;;;;;4994798;28;20026;-79
2022/05/14 13:18:33;;;;;;;9.38;8.38;;;18.60;99.90;;;;;;4991481;28;20041;-79
2022/05/14 13:21:06;;;;;;;12.55;8.57;;;18.60;99.90;;;;;;4994940;28;20026;-79
2022/05/14 13:23:35;;;;;;;11.90;10.05;;;18.50;99.90;;;;;;4994917;28;20379;-79
2022/05/14 13:26:06;;;;;;;11.63;9.70;;;18.50;99.90;;;;;;4994774;28;20376;-80
2022/05/14 13:28:40;;;;;;;11.70;9.77;;;18.50;99.90;;;;;;4993198;28;20045;-80
2022/05/14 13:31:28;;;;;;;11.63;9.75;;;18.50;99.90;;;;;;4993263;28;20022;-80